Time;durP1;ratioP1;P1;durP2;ratioP2;P2;SDS_P1;SDS_P2;PMS_P1;PMS_P2;Temp;Humidity;BMP_temperature;BMP_pressure;BME280_temperature;BME280_humidity;BME280_pressure;Samples;Min_cycle;Max_cycle;Signal;HPM_P1;HPM_P2
2022/06/20 00:02:21;;;;;;;;;;;;;;;;;;5089942;28;20263;-67
2022/06/20 00:04:47;;;;;;;;;;;;;;;;;;5089363;28;19927;-67
2022/06/20 00:07:13;;;;;;;;;;;;;;;;;;5090169;28;19951;-67
2022/06/20 00:09:39;;;;;;;;;;;;;;;;;;5091339;28;19931;-67
2022/06/20 00:12:04;;;;;;;;;;;;;;;;;;5090594;28;19920;-67
2022/06/20 00:14:30;;;;;;;;;;;;;;;;;;5090061;28;19927;-67
2022/06/20 00:16:56;;;;;;;;;;;;;;;;;;5091110;28;20390;-67
2022/06/20 00:19:22;;;;;;;;;;;;;;;;;;5089326;28;19920;-67
2022/06/20 00:21:48;;;;;;;;;;;;;;;;;;5089792;28;19924;-67
2022/06/20 00:24:14;;;;;;;;;;;;;;;;;;5091026;28;19920;-67
2022/06/20 00:26:40;;;;;;;;;;;;;;;;;;5077220;28;20029;-67
2022/06/20 00:29:06;;;;;;;;;;;;;;;;;;5069202;28;19924;-67
2022/06/20 00:31:32;;;;;;;;;;;;;;;;;;5070822;28;19925;-67
2022/06/20 00:33:58;;;;;;;;;;;;;;;;;;5068901;28;20023;-67
2022/06/20 00:36:23;;;;;;;;;;;;;;;;;;5052729;28;19925;-67
2022/06/20 00:38:49;;;;;;;;;;;;;;;;;;5069271;28;20298;-67
2022/06/20 00:41:15;;;;;;;;;;;;;;;;;;5068864;28;19924;-67
2022/06/20 00:43:42;;;;;;;;;;;;;;;;;;5068955;28;19935;-67
2022/06/20 00:46:07;;;;;;;;;;;;;;;;;;5068956;28;19924;-67
2022/06/20 00:48:33;;;;;;;;;;;;;;;;;;5069841;28;19973;-67
2022/06/20 00:50:59;;;;;;;;;;;;;;;;;;5068948;28;19920;-67
2022/06/20 00:53:25;;;;;;;;;;;;;;;;;;5069332;28;19921;-67
2022/06/20 00:55:51;;;;;;;;;;;;;;;;;;5069730;28;19927;-67
2022/06/20 00:58:17;;;;;;;;;;;;;;;;;;5070638;28;20059;-67
2022/06/20 01:00:43;;;;;;;;;;;;;;;;;;5068895;28;20280;-67
2022/06/20 01:03:11;;;;;;;;;;;;;;;;;;5069626;28;19970;-67
2022/06/20 01:05:37;;;;;;;;;;;;;;;;;;5068812;28;19921;-67
2022/06/20 01:08:03;;;;;;;;;;;;;;;;;;5068768;28;20290;-67
2022/06/20 01:10:30;;;;;;;;;;;;;;;;;;5068365;28;19924;-67
2022/06/20 01:12:56;;;;;;;;;;;;;;;;;;5070414;28;19921;-67
2022/06/20 01:15:22;;;;;;;;;;;;;;;;;;5070361;28;19943;-67
2022/06/20 01:17:48;;;;;;;;;;;;;;;;;;5068728;28;19960;-67
2022/06/20 01:20:14;;;;;;;;;;;;;;;;;;5069515;28;19998;-67
2022/06/20 01:22:40;;;;;;;;;;;;;;;;;;5070342;28;19921;-67
2022/06/20 01:25:06;;;;;;;;;;;;;;;;;;5068610;28;19947;-67
2022/06/20 01:27:32;;;;;;;;;;;;;;;;;;5089770;28;19924;-67
2022/06/20 01:29:58;;;;;;;;;;;;;;;;;;5088890;28;19932;-67
2022/06/20 01:32:24;;;;;;;;;;;;;;;;;;5088926;28;20011;-67
2022/06/20 01:34:49;;;;;;;;;;;;;;;;;;5088231;28;19926;-67
2022/06/20 01:37:28;;;;;;;;;;;;;;;;;;5088904;28;20146;-67
2022/06/20 01:39:54;;;;;;;;;;;;;;;;;;5090312;28;20308;-67
2022/06/20 01:42:20;;;;;;;;;;;;;;;;;;5088240;28;19965;-67
2022/06/20 01:44:46;;;;;;;;;;;;;;;;;;5088747;28;19924;-67
2022/06/20 01:47:12;;;;;;;;;;;;;;;;;;5088784;28;19938;-67
2022/06/20 01:49:38;;;;;;;;;;;;;;;;;;5089506;28;19928;-67
2022/06/20 01:52:04;;;;;;;;;;;;;;;;;;5089847;28;20374;-67
2022/06/20 01:54:30;;;;;;;;;;;;;;;;;;5088637;28;19957;-67
2022/06/20 01:56:56;;;;;;;;;;;;;;;;;;5088636;28;20275;-67
2022/06/20 01:59:21;;;;;;;;;;;;;;;;;;5092095;28;19959;-67
2022/06/20 02:01:47;;;;;;;;;;;;;;;;;;5093830;28;19950;-67
2022/06/20 02:04:13;;;;;;;;;;;;;;;;;;5091627;28;20442;-67
2022/06/20 02:06:39;;;;;;;;;;;;;;;;;;5093700;28;19926;-67
2022/06/20 02:09:05;;;;;;;;;;;;;;;;;;5092465;28;19924;-67
2022/06/20 02:11:31;;;;;;;;;;;;;;;;;;5091674;28;19927;-67
2022/06/20 02:13:57;;;;;;;;;;;;;;;;;;5091968;28;20285;-67
2022/06/20 02:16:23;;;;;;;;;;;;;;;;;;5093584;28;19920;-67
2022/06/20 02:18:49;;;;;;;;;;;;;;;;;;5092944;28;19947;-67
2022/06/20 02:21:15;;;;;;;;;;;;;;;;;;5093293;28;20031;-67
2022/06/20 02:23:40;;;;;;;;;;;;;;;;;;5091848;28;20003;-67
2022/06/20 02:26:06;;;;;;;;;;;;;;;;;;5082795;28;20367;-67
2022/06/20 02:28:32;;;;;;;;;;;;;;;;;;5073005;28;19932;-67
2022/06/20 02:30:58;;;;;;;;;;;;;;;;;;5072894;28;19932;-67
2022/06/20 02:33:27;;;;;;;;;;;;;;;;;;5072480;28;20011;-67
2022/06/20 02:35:53;;;;;;;;;;;;;;;;;;5072971;28;20291;-67
2022/06/20 02:38:20;;;;;;;;;;;;;;;;;;5071402;28;19924;-67
2022/06/20 02:40:47;;;;;;;;;;;;;;;;;;5070715;28;20011;-67
2022/06/20 02:43:13;;;;;;;;;;;;;;;;;;5071024;28;19932;-67
2022/06/20 02:45:38;;;;;;;;;;;;;;;;;;5072682;28;19939;-67
2022/06/20 02:48:04;;;;;;;;;;;;;;;;;;5070530;28;20298;-67
2022/06/20 02:50:30;;;;;;;;;;;;;;;;;;5072535;28;19920;-67
2022/06/20 02:52:56;;;;;;;;;;;;;;;;;;5072993;28;19927;-67
2022/06/20 02:55:22;;;;;;;;;;;;;;;;;;5071656;28;20321;-67
2022/06/20 02:57:48;;;;;;;;;;;;;;;;;;5072751;28;19932;-67
2022/06/20 03:00:14;;;;;;;;;;;;;;;;;;5071215;28;20326;-67
2022/06/20 03:02:40;;;;;;;;;;;;;;;;;;5072031;28;20400;-67
2022/06/20 03:05:06;;;;;;;;;;;;;;;;;;5072462;28;19927;-67
2022/06/20 03:07:32;;;;;;;;;;;;;;;;;;5070835;28;19924;-67
2022/06/20 03:09:58;;;;;;;;;;;;;;;;;;5071015;28;19936;-67
2022/06/20 03:12:24;;;;;;;;;;;;;;;;;;5072201;28;19924;-67
2022/06/20 03:14:50;;;;;;;;;;;;;;;;;;5072336;28;19963;-67
2022/06/20 03:17:16;;;;;;;;;;;;;;;;;;5070052;28;19924;-67
2022/06/20 03:19:41;;;;;;;;;;;;;;;;;;5070621;28;19924;-67
2022/06/20 03:22:07;;;;;;;;;;;;;;;;;;5070435;28;20133;-67
2022/06/20 03:24:33;;;;;;;;;;;;;;;;;;5071080;28;20054;-67
2022/06/20 03:26:59;;;;;;;;;;;;;;;;;;5087609;28;19920;-67
2022/06/20 03:29:25;;;;;;;;;;;;;;;;;;5090492;28;19924;-67
2022/06/20 03:31:51;;;;;;;;;;;;;;;;;;5091344;28;19924;-67
2022/06/20 03:34:17;;;;;;;;;;;;;;;;;;5090534;28;19965;-67
2022/06/20 03:36:43;;;;;;;;;;;;;;;;;;5090766;28;20328;-67
2022/06/20 03:39:09;;;;;;;;;;;;;;;;;;5091386;28;19920;-67
2022/06/20 03:41:35;;;;;;;;;;;;;;;;;;5090696;28;20392;-67
2022/06/20 03:44:01;;;;;;;;;;;;;;;;;;5090250;28;20030;-67
2022/06/20 03:46:27;;;;;;;;;;;;;;;;;;5089673;28;19920;-67
2022/06/20 03:48:53;;;;;;;;;;;;;;;;;;5091642;28;19924;-67
2022/06/20 03:51:19;;;;;;;;;;;;;;;;;;5089971;28;19959;-67
2022/06/20 03:53:45;;;;;;;;;;;;;;;;;;5091234;28;20015;-67
2022/06/20 03:56:11;;;;;;;;;;;;;;;;;;5090094;28;20405;-67
2022/06/20 03:58:37;;;;;;;;;;;;;;;;;;5090117;28;19965;-67
2022/06/20 04:01:03;;;;;;;;;;;;;;;;;;5089313;28;20011;-67
2022/06/20 04:03:29;;;;;;;;;;;;;;;;;;5091678;28;19927;-67
2022/06/20 04:05:55;;;;;;;;;;;;;;;;;;5091429;28;19920;-67
2022/06/20 04:08:21;;;;;;;;;;;;;;;;;;5090754;28;20398;-67
2022/06/20 04:10:59;;;;;;;;;;;;;;;;;;5089689;28;19927;-67
2022/06/20 04:13:25;;;;;;;;;;;;;;;;;;5090078;28;20379;-67
2022/06/20 04:15:51;;;;;;;;;;;;;;;;;;5090458;28;19973;-67
2022/06/20 04:18:29;;;;;;;;;;;;;;;;;;5090108;28;19969;-67
2022/06/20 04:20:55;;;;;;;;;;;;;;;;;;5090444;28;19927;-67
2022/06/20 04:23:21;;;;;;;;;;;;;;;;;;5089246;28;20537;-67
2022/06/20 04:25:46;;;;;;;;;;;;;;;;;;5083789;28;19927;-67
2022/06/20 04:28:12;;;;;;;;;;;;;;;;;;5072063;28;20267;-67
2022/06/20 04:30:38;;;;;;;;;;;;;;;;;;5069736;28;19981;-67
2022/06/20 04:33:04;;;;;;;;;;;;;;;;;;5069395;28;20375;-67
2022/06/20 04:35:30;;;;;;;;;;;;;;;;;;5069844;28;20378;-67
2022/06/20 04:37:56;;;;;;;;;;;;;;;;;;5069848;28;19924;-67
2022/06/20 04:40:22;;;;;;;;;;;;;;;;;;5070384;28;19942;-67
2022/06/20 04:42:48;;;;;;;;;;;;;;;;;;5081476;28;20015;-67
2022/06/20 04:45:14;;;;;;;;;;;;;;;;;;5090255;28;20007;-67
2022/06/20 04:47:40;;;;;;;;;;;;;;;;;;5091806;28;19939;-67
2022/06/20 04:50:06;;;;;;;;;;;;;;;;;;5090086;28;19989;-67
2022/06/20 04:52:32;;;;;;;;;;;;;;;;;;5089823;28;19924;-67
2022/06/20 04:54:58;;;;;;;;;;;;;;;;;;5090408;28;19924;-67
2022/06/20 04:57:24;;;;;;;;;;;;;;;;;;5089893;28;19939;-67
2022/06/20 04:59:50;;;;;;;;;;;;;;;;;;5090149;28;19924;-67
2022/06/20 05:02:15;;;;;;;;;;;;;;;;;;5091446;28;19924;-67
2022/06/20 05:04:41;;;;;;;;;;;;;;;;;;5091799;28;19959;-67
2022/06/20 05:07:07;;;;;;;;;;;;;;;;;;5091148;28;19920;-67
2022/06/20 05:09:33;;;;;;;;;;;;;;;;;;5087326;28;19947;-67
2022/06/20 05:11:59;;;;;;;;;;;;;;;;;;5088622;28;19920;-67
2022/06/20 05:14:25;;;;;;;;;;;;;;;;;;5088679;28;19969;-67
2022/06/20 05:16:51;;;;;;;;;;;;;;;;;;5088101;28;19924;-67
2022/06/20 05:19:17;;;;;;;;;;;;;;;;;;5090299;28;19924;-67
2022/06/20 05:21:43;;;;;;;;;;;;;;;;;;5090046;28;19924;-67
2022/06/20 05:24:09;;;;;;;;;;;;;;;;;;5089065;28;20385;-67
2022/06/20 05:26:35;;;;;;;;;;;;;;;;;;5089797;28;19974;-67
2022/06/20 05:29:01;;;;;;;;;;;;;;;;;;5089304;28;20363;-67
2022/06/20 05:31:26;;;;;;;;;;;;;;;;;;5087471;28;20006;-67
2022/06/20 05:33:52;;;;;;;;;;;;;;;;;;5092630;28;19920;-67
2022/06/20 05:36:18;;;;;;;;;;;;;;;;;;5094196;28;19924;-67
2022/06/20 05:38:44;;;;;;;;;;;;;;;;;;5093155;28;19925;-67
2022/06/20 05:41:10;;;;;;;;;;;;;;;;;;5093762;28;19924;-67
2022/06/20 05:43:36;;;;;;;;;;;;;;;;;;5093577;28;19955;-67
2022/06/20 05:46:03;;;;;;;;;;;;;;;;;;5092386;28;19924;-67
2022/06/20 05:48:30;;;;;;;;;;;;;;;;;;5094915;28;19924;-67
2022/06/20 05:50:55;;;;;;;;;;;;;;;;;;5090724;28;19985;-67
2022/06/20 05:53:24;;;;;;;;;;;;;;;;;;5094056;28;20339;-68
2022/06/20 05:55:50;;;;;;;;;;;;;;;;;;5096641;28;20011;-68
2022/06/20 05:58:16;;;;;;;;;;;;;;;;;;5075395;28;20014;-67
2022/06/20 06:00:42;;;;;;;;;;;;;;;;;;5090559;28;19924;-67
2022/06/20 06:03:08;;;;;;;;;;;;;;;;;;5089940;28;19981;-68
2022/06/20 06:05:35;;;;;;;;;;;;;;;;;;5090673;28;19955;-68
2022/06/20 06:08:01;;;;;;;;;;;;;;;;;;5093307;28;19921;-67
2022/06/20 06:10:27;;;;;;;;;;;;;;;;;;5092161;28;19985;-66
2022/06/20 06:12:52;;;;;;;;;;;;;;;;;;5092619;28;19920;-67
2022/06/20 06:15:18;;;;;;;;;;;;;;;;;;5088067;28;19924;-68
2022/06/20 06:17:44;;;;;;;;;;;;;;;;;;5079785;28;19920;-67
2022/06/20 06:20:11;;;;;;;;;;;;;;;;;;5086757;28;19935;-68
2022/06/20 06:22:37;;;;;;;;;;;;;;;;;;5093411;28;19920;-67
2022/06/20 06:25:03;;;;;;;;;;;;;;;;;;5092617;28;19978;-68
2022/06/20 06:27:29;;;;;;;;;;;;;;;;;;5092372;28;20010;-68
2022/06/20 06:29:55;;;;;;;;;;;;;;;;;;5093226;28;20065;-68
2022/06/20 06:32:21;;;;;;;;;;;;;;;;;;5086005;28;19920;-68
2022/06/20 06:34:47;;;;;;;;;;;;;;;;;;5082367;28;20011;-67
2022/06/20 06:37:12;;;;;;;;;;;;;;;;;;5086703;28;20002;-67
2022/06/20 06:39:38;;;;;;;;;;;;;;;;;;5098463;28;19931;-67
2022/06/20 06:42:04;;;;;;;;;;;;;;;;;;5084463;28;20000;-67
2022/06/20 06:44:31;;;;;;;;;;;;;;;;;;5079888;28;19993;-69
2022/06/20 06:46:57;;;;;;;;;;;;;;;;;;5091025;28;20334;-67
2022/06/20 06:49:23;;;;;;;;;;;;;;;;;;5091919;28;19924;-68
2022/06/20 06:51:50;;;;;;;;;;;;;;;;;;5091971;28;20010;-67
2022/06/20 06:54:16;;;;;;;;;;;;;;;;;;5091147;28;20294;-67
2022/06/20 06:56:42;;;;;;;;;;;;;;;;;;5090975;28;20305;-68
2022/06/20 06:59:08;;;;;;;;;;;;;;;;;;5091843;28;19924;-66
2022/06/20 07:01:34;;;;;;;;;;;;;;;;;;5084853;28;19920;-67
2022/06/20 07:04:00;;;;;;;;;;;;;;;;;;5091559;28;19987;-67
2022/06/20 07:06:26;;;;;;;;;;;;;;;;;;5090362;28;20015;-67
2022/06/20 07:08:52;;;;;;;;;;;;;;;;;;5085683;28;19935;-67
2022/06/20 07:11:21;;;;;;;;;;;;;;;;;;5090970;28;19928;-67
2022/06/20 07:13:47;;;;;;;;;;;;;;;;;;5090705;28;20456;-67
2022/06/20 07:16:12;;;;;;;;;;;;;;;;;;5087677;28;19931;-68
2022/06/20 07:18:39;;;;;;;;;;;;;;;;;;5091517;28;19997;-68
2022/06/20 07:21:05;;;;;;;;;;;;;;;;;;5089544;28;19956;-67
2022/06/20 07:23:31;;;;;;;;;;;;;;;;;;5090780;28;19927;-68
2022/06/20 07:25:57;;;;;;;;;;;;;;;;;;5091822;28;20346;-67
2022/06/20 07:28:23;;;;;;;;;;;;;;;;;;5089306;28;19924;-69
2022/06/20 07:30:49;;;;;;;;;;;;;;;;;;5090978;28;19920;-68
2022/06/20 07:33:15;;;;;;;;;;;;;;;;;;5091307;28;19969;-69
2022/06/20 07:35:41;;;;;;;;;;;;;;;;;;5081878;28;20636;-68
2022/06/20 07:38:07;;;;;;;;;;;;;;;;;;5079732;28;19924;-68
2022/06/20 07:40:33;;;;;;;;;;;;;;;;;;5088030;28;19943;-66
2022/06/20 07:42:59;;;;;;;;;;;;;;;;;;5089112;28;20306;-68
2022/06/20 07:45:24;;;;;;;;;;;;;;;;;;5090848;28;19970;-69
2022/06/20 07:47:50;;;;;;;;;;;;;;;;;;5090895;28;20277;-69
2022/06/20 07:50:16;;;;;;;;;;;;;;;;;;5089243;28;19950;-68
2022/06/20 07:52:44;;;;;;;;;;;;;;;;;;5089001;28;21265;-69
2022/06/20 07:55:10;;;;;;;;;;;;;;;;;;5088596;28;19924;-68
2022/06/20 07:57:36;;;;;;;;;;;;;;;;;;5088858;28;19926;-69
2022/06/20 08:00:02;;;;;;;;;;;;;;;;;;5091347;28;19974;-68
2022/06/20 08:02:28;;;;;;;;;;;;;;;;;;5088657;28;19989;-68
2022/06/20 08:04:54;;;;;;;;;;;;;;;;;;5089286;28;19921;-68
2022/06/20 08:07:20;;;;;;;;;;;;;;;;;;5089402;28;19931;-69
2022/06/20 08:09:46;;;;;;;;;;;;;;;;;;5089639;28;19928;-68
2022/06/20 08:12:13;;;;;;;;;;;;;;;;;;5088823;28;19924;-68
2022/06/20 08:14:39;;;;;;;;;;;;;;;;;;5083020;28;19924;-68
2022/06/20 08:17:04;;;;;;;;;;;;;;;;;;5089496;28;19965;-67
2022/06/20 08:19:30;;;;;;;;;;;;;;;;;;5089515;28;19973;-69
2022/06/20 08:21:57;;;;;;;;;;;;;;;;;;5088483;28;19990;-70
2022/06/20 08:24:23;;;;;;;;;;;;;;;;;;5090131;28;20390;-68
2022/06/20 08:26:49;;;;;;;;;;;;;;;;;;5089832;28;19931;-69
2022/06/20 08:29:15;;;;;;;;;;;;;;;;;;5084309;28;19932;-67
2022/06/20 08:31:41;;;;;;;;;;;;;;;;;;5081513;28;19977;-67
2022/06/20 08:34:07;;;;;;;;;;;;;;;;;;5086538;28;20286;-66
2022/06/20 08:36:33;;;;;;;;;;;;;;;;;;5089855;28;20383;-67
2022/06/20 08:38:59;;;;;;;;;;;;;;;;;;5090111;28;20016;-69
2022/06/20 08:41:24;;;;;;;;;;;;;;;;;;5088761;28;19920;-67
2022/06/20 08:43:50;;;;;;;;;;;;;;;;;;5087230;28;19928;-67
2022/06/20 08:46:16;;;;;;;;;;;;;;;;;;5088611;28;19924;-67
2022/06/20 08:48:42;;;;;;;;;;;;;;;;;;5089770;28;19934;-67
2022/06/20 08:51:08;;;;;;;;;;;;;;;;;;5086215;28;19931;-68
2022/06/20 08:53:34;;;;;;;;;;;;;;;;;;5090082;28;19924;-67
2022/06/20 08:56:00;;;;;;;;;;;;;;;;;;5096575;28;20475;-67
2022/06/20 08:58:26;;;;;;;;;;;;;;;;;;5089005;28;20401;-68
2022/06/20 09:00:52;;;;;;;;;;;;;;;;;;5085372;28;19928;-69
2022/06/20 09:03:18;;;;;;;;;;;;;;;;;;5089280;28;20317;-68
2022/06/20 09:05:44;;;;;;;;;;;;;;;;;;5092284;28;20477;-68
2022/06/20 09:08:10;;;;;;;;;;;;;;;;;;5090516;28;19924;-68
2022/06/20 09:10:36;;;;;;;;;;;;;;;;;;5083133;28;19945;-69
2022/06/20 09:13:02;;;;;;;;;;;;;;;;;;5083505;28;19964;-69
2022/06/20 09:15:28;;;;;;;;;;;;;;;;;;5069848;28;19924;-68
2022/06/20 09:17:54;;;;;;;;;;;;;;;;;;5093273;28;20347;-67
2022/06/20 09:20:20;;;;;;;;;;;;;;;;;;5092828;28;20335;-68
2022/06/20 09:22:46;;;;;;;;;;;;;;;;;;5070788;28;20370;-68
2022/06/20 09:25:12;;;;;;;;;;;;;;;;;;5093265;28;19924;-66
2022/06/20 09:27:38;;;;;;;;;;;;;;;;;;5092053;28;19924;-67
2022/06/20 09:30:04;;;;;;;;;;;;;;;;;;5094126;28;19924;-67
2022/06/20 09:32:30;;;;;;;;;;;;;;;;;;5093306;28;19924;-66
2022/06/20 09:34:56;;;;;;;;;;;;;;;;;;5093333;28;19924;-67
2022/06/20 09:37:22;;;;;;;;;;;;;;;;;;5092729;28;19984;-67
2022/06/20 09:39:48;;;;;;;;;;;;;;;;;;5093816;28;19963;-67
2022/06/20 09:42:14;;;;;;;;;;;;;;;;;;5091555;28;20283;-65
2022/06/20 09:44:40;;;;;;;;;;;;;;;;;;5092559;28;19969;-65
2022/06/20 09:47:06;;;;;;;;;;;;;;;;;;5092651;28;20332;-65
2022/06/20 09:49:32;;;;;;;;;;;;;;;;;;5093119;28;20305;-67
2022/06/20 09:51:57;;;;;;;;;;;;;;;;;;5091978;28;19968;-68
2022/06/20 09:54:24;;;;;;;;;;;;;;;;;;5089135;28;19967;-66
2022/06/20 09:56:51;;;;;;;;;;;;;;;;;;5091848;28;19931;-67
2022/06/20 09:59:17;;;;;;;;;;;;;;;;;;5088114;28;20003;-68
2022/06/20 10:01:44;;;;;;;;;;;;;;;;;;5087359;28;20014;-67
2022/06/20 10:04:10;;;;;;;;;;;;;;;;;;5094087;28;19979;-67
2022/06/20 10:06:36;;;;;;;;;;;;;;;;;;5089490;28;19963;-69
2022/06/20 10:09:02;;;;;;;;;;;;;;;;;;5087086;28;19924;-68
2022/06/20 10:11:28;;;;;;;;;;;;;;;;;;5094557;28;19943;-68
2022/06/20 10:13:54;;;;;;;;;;;;;;;;;;5084556;28;19924;-67
2022/06/20 10:16:20;;;;;;;;;;;;;;;;;;5092981;28;20009;-68
2022/06/20 10:18:46;;;;;;;;;;;;;;;;;;5076698;28;19927;-69
2022/06/20 10:21:13;;;;;;;;;;;;;;;;;;5095244;28;19963;-71
2022/06/20 10:23:39;;;;;;;;;;;;;;;;;;5095602;28;19927;-69
2022/06/20 10:26:05;;;;;;;;;;;;;;;;;;5067323;28;20009;-69
2022/06/20 10:28:31;;;;;;;;;;;;;;;;;;5090437;28;19981;-69
2022/06/20 10:30:57;;;;;;;;;;;;;;;;;;5089636;28;19920;-68
2022/06/20 10:33:23;;;;;;;;;;;;;;;;;;5085408;28;19926;-70
2022/06/20 10:35:49;;;;;;;;;;;;;;;;;;5084262;28;19951;-69
2022/06/20 10:38:15;;;;;;;;;;;;;;;;;;5084401;28;20284;-69
2022/06/20 10:40:41;;;;;;;;;;;;;;;;;;5091072;28;20007;-69
2022/06/20 10:43:07;;;;;;;;;;;;;;;;;;5098524;28;20036;-69
2022/06/20 10:45:33;;;;;;;;;;;;;;;;;;5092678;28;19983;-70
2022/06/20 10:47:59;;;;;;;;;;;;;;;;;;5090813;28;20011;-70
2022/06/20 10:50:25;;;;;;;;;;;;;;;;;;5092472;28;20010;-70
2022/06/20 10:52:51;;;;;;;;;;;;;;;;;;5098249;28;19928;-71
2022/06/20 10:55:17;;;;;;;;;;;;;;;;;;5074294;28;20001;-70
2022/06/20 10:57:43;;;;;;;;;;;;;;;;;;5092542;28;19920;-70
2022/06/20 11:00:12;;;;;;;;;;;;;;;;;;5092601;28;20010;-70
2022/06/20 11:02:38;;;;;;;;;;;;;;;;;;5090554;28;19970;-70
2022/06/20 11:05:04;;;;;;;;;;;;;;;;;;5080077;28;20322;-70
2022/06/20 11:07:30;;;;;;;;;;;;;;;;;;5093095;28;19924;-70
2022/06/20 11:09:56;;;;;;;;;;;;;;;;;;5091996;28;20019;-70
2022/06/20 11:12:22;;;;;;;;;;;;;;;;;;5093373;28;20003;-69
2022/06/20 11:14:48;;;;;;;;;;;;;;;;;;5081509;28;19924;-67
2022/06/20 11:17:17;;;;;;;;;;;;;;;;;;5076982;28;19920;-67
2022/06/20 11:19:43;;;;;;;;;;;;;;;;;;5093124;28;19939;-68
2022/06/20 11:22:09;;;;;;;;;;;;;;;;;;5090970;28;20297;-68
2022/06/20 11:24:37;;;;;;;;;;;;;;;;;;5091500;28;19951;-70
2022/06/20 11:27:03;;;;;;;;;;;;;;;;;;5074949;28;20398;-71
2022/06/20 11:29:29;;;;;;;;;;;;;;;;;;5086310;28;20015;-68
2022/06/20 11:31:56;;;;;;;;;;;;;;;;;;5082675;28;19924;-69
2022/06/20 11:34:24;;;;;;;;;;;;;;;;;;5090204;28;19946;-69
2022/06/20 11:36:51;;;;;;;;;;;;;;;;;;5090806;28;19920;-68
2022/06/20 11:39:17;;;;;;;;;;;;;;;;;;5093635;28;19924;-68
2022/06/20 11:41:43;;;;;;;;;;;;;;;;;;5094610;28;19920;-68
2022/06/20 11:44:11;;;;;;;;;;;;;;;;;;5090239;28;19934;-70
2022/06/20 11:46:37;;;;;;;;;;;;;;;;;;5089610;28;19953;-69
2022/06/20 11:49:04;;;;;;;;;;;;;;;;;;5065345;28;19931;-71
2022/06/20 11:51:30;;;;;;;;;;;;;;;;;;5084680;28;19920;-71
2022/06/20 11:53:55;;;;;;;;;;;;;;;;;;5089853;28;19981;-70
2022/06/20 11:56:21;;;;;;;;;;;;;;;;;;5091636;28;19924;-70
2022/06/20 11:58:47;;;;;;;;;;;;;;;;;;5091093;28;19955;-69
2022/06/20 12:01:13;;;;;;;;;;;;;;;;;;5079598;28;19920;-68
2022/06/20 12:03:40;;;;;;;;;;;;;;;;;;5082562;28;19924;-68
2022/06/20 12:06:06;;;;;;;;;;;;;;;;;;5086709;28;20590;-69
2022/06/20 12:08:32;;;;;;;;;;;;;;;;;;5081639;28;19973;-70
2022/06/20 12:10:57;;;;;;;;;;;;;;;;;;5079629;28;19928;-70
2022/06/20 12:13:23;;;;;;;;;;;;;;;;;;5091205;28;19921;-71
2022/06/20 12:15:50;;;;;;;;;;;;;;;;;;5087221;28;20367;-69
2022/06/20 12:18:16;;;;;;;;;;;;;;;;;;5090419;28;19920;-69
2022/06/20 12:23:28;;;;;;;;;;;;;;;;;;5083478;28;19920;-69
2022/06/20 12:25:54;;;;;;;;;;;;;;;;;;5084901;28;20454;-71
2022/06/20 12:28:20;;;;;;;;;;;;;;;;;;5088696;28;20008;-68
2022/06/20 12:30:46;;;;;;;;;;;;;;;;;;5082667;28;20011;-70
2022/06/20 12:33:12;;;;;;;;;;;;;;;;;;5074574;28;19947;-70
2022/06/20 12:35:38;;;;;;;;;;;;;;;;;;5081893;28;19920;-69
2022/06/20 12:38:04;;;;;;;;;;;;;;;;;;5082877;28;19920;-70
2022/06/20 12:40:30;;;;;;;;;;;;;;;;;;5074953;28;20012;-68
2022/06/20 12:42:56;;;;;;;;;;;;;;;;;;5083671;28;20370;-68
2022/06/20 12:45:22;;;;;;;;;;;;;;;;;;5089464;28;19974;-69
2022/06/20 12:47:48;;;;;;;;;;;;;;;;;;5076993;28;20027;-68
2022/06/20 12:50:14;;;;;;;;;;;;;;;;;;5065859;28;19925;-69
2022/06/20 12:52:40;;;;;;;;;;;;;;;;;;5080659;28;19921;-73
2022/06/20 12:55:05;;;;;;;;;;;;;;;;;;5086326;28;19943;-69
2022/06/20 12:57:31;;;;;;;;;;;;;;;;;;5081636;28;19923;-70
2022/06/20 12:59:57;;;;;;;;;;;;;;;;;;5089014;28;19986;-69
2022/06/20 13:02:23;;;;;;;;;;;;;;;;;;5085460;28;19921;-68
2022/06/20 13:04:49;;;;;;;;;;;;;;;;;;5089831;28;19932;-69
2022/06/20 13:07:15;;;;;;;;;;;;;;;;;;5091973;28;19993;-69
2022/06/20 13:09:41;;;;;;;;;;;;;;;;;;5089485;28;20042;-69
2022/06/20 13:12:07;;;;;;;;;;;;;;;;;;5089926;28;19943;-69
2022/06/20 13:14:33;;;;;;;;;;;;;;;;;;5089646;28;19920;-69
2022/06/20 13:17:00;;;;;;;;;;;;;;;;;;5072439;28;19947;-68
2022/06/20 13:19:26;;;;;;;;;;;;;;;;;;5089497;28;19959;-67
2022/06/20 13:21:52;;;;;;;;;;;;;;;;;;5085824;28;19924;-68
2022/06/20 13:24:18;;;;;;;;;;;;;;;;;;5070638;28;20370;-69
2022/06/20 13:26:44;;;;;;;;;;;;;;;;;;5054936;28;20027;-69
2022/06/20 13:29:10;;;;;;;;;;;;;;;;;;5053240;28;19973;-69
2022/06/20 13:31:36;;;;;;;;;;;;;;;;;;5072091;28;19920;-69
2022/06/20 13:34:02;;;;;;;;;;;;;;;;;;5059858;28;20038;-69
2022/06/20 13:36:28;;;;;;;;;;;;;;;;;;5072728;28;19924;-67
2022/06/20 13:38:55;;;;;;;;;;;;;;;;;;5095765;28;19926;-67
2022/06/20 13:41:21;;;;;;;;;;;;;;;;;;5091351;28;20536;-67
2022/06/20 13:43:48;;;;;;;;;;;;;;;;;;5089985;28;19985;-68
2022/06/20 13:46:14;;;;;;;;;;;;;;;;;;5080322;28;19923;-67
2022/06/20 13:48:40;;;;;;;;;;;;;;;;;;5083564;28;19942;-70
2022/06/20 13:51:06;;;;;;;;;;;;;;;;;;5104314;28;19928;-70
2022/06/20 13:53:32;;;;;;;;;;;;;;;;;;5093633;28;19928;-67
2022/06/20 13:55:59;;;;;;;;;;;;;;;;;;5093448;28;19920;-67
2022/06/20 13:58:25;;;;;;;;;;;;;;;;;;5098566;28;19951;-68
2022/06/20 14:00:51;;;;;;;;;;;;;;;;;;5093717;28;19955;-67
2022/06/20 14:03:19;;;;;;;;;;;;;;;;;;5088508;28;19943;-67
2022/06/20 14:05:45;;;;;;;;;;;;;;;;;;5081988;28;20364;-68
2022/06/20 14:08:11;;;;;;;;;;;;;;;;;;5091045;28;19958;-69
2022/06/20 14:10:37;;;;;;;;;;;;;;;;;;5096350;28;19984;-69
2022/06/20 14:13:03;;;;;;;;;;;;;;;;;;5093021;28;19920;-69
2022/06/20 14:15:29;;;;;;;;;;;;;;;;;;5090967;28;19932;-69
2022/06/20 14:17:56;;;;;;;;;;;;;;;;;;5078197;28;19927;-68
2022/06/20 14:20:22;;;;;;;;;;;;;;;;;;5092033;28;19939;-67
2022/06/20 14:22:48;;;;;;;;;;;;;;;;;;5092142;28;19924;-67
2022/06/20 14:25:14;;;;;;;;;;;;;;;;;;5086769;28;19920;-67
2022/06/20 14:27:40;;;;;;;;;;;;;;;;;;5091744;28;19927;-66
2022/06/20 14:30:06;;;;;;;;;;;;;;;;;;5091083;28;19939;-71
2022/06/20 14:32:32;;;;;;;;;;;;;;;;;;5084271;28;19947;-70
2022/06/20 14:37:43;;;;;;;;;;;;;;;;;;5089245;28;20295;-68
2022/06/20 14:40:09;;;;;;;;;;;;;;;;;;5098187;28;19931;-68
2022/06/20 14:42:36;;;;;;;;;;;;;;;;;;5093182;28;19925;-68
2022/06/20 14:45:02;;;;;;;;;;;;;;;;;;5093275;28;19963;-68
2022/06/20 14:47:28;;;;;;;;;;;;;;;;;;5094020;28;20000;-68
2022/06/20 14:49:54;;;;;;;;;;;;;;;;;;5094048;28;19924;-68
2022/06/20 14:52:20;;;;;;;;;;;;;;;;;;5093460;28;19931;-68
2022/06/20 14:54:46;;;;;;;;;;;;;;;;;;5087123;28;19961;-69
2022/06/20 14:57:12;;;;;;;;;;;;;;;;;;5093615;28;19924;-68
2022/06/20 14:59:39;;;;;;;;;;;;;;;;;;5092229;28;19931;-68
2022/06/20 15:02:05;;;;;;;;;;;;;;;;;;5093068;28;19924;-68
2022/06/20 15:04:31;;;;;;;;;;;;;;;;;;5092727;28;20627;-69
2022/06/20 15:06:57;;;;;;;;;;;;;;;;;;5093040;28;19920;-69
2022/06/20 15:09:23;;;;;;;;;;;;;;;;;;5093126;28;19963;-68
2022/06/20 15:11:49;;;;;;;;;;;;;;;;;;5093716;28;19923;-68
2022/06/20 15:14:15;;;;;;;;;;;;;;;;;;5092897;28;20487;-68
2022/06/20 15:16:40;;;;;;;;;;;;;;;;;;5093645;28;19967;-68
2022/06/20 15:19:06;;;;;;;;;;;;;;;;;;5093879;28;19924;-68
2022/06/20 15:21:32;;;;;;;;;;;;;;;;;;5093059;28;19924;-68
2022/06/20 15:23:58;;;;;;;;;;;;;;;;;;5093463;28;19928;-68
2022/06/20 15:26:24;;;;;;;;;;;;;;;;;;5093456;28;19971;-69
2022/06/20 15:28:50;;;;;;;;;;;;;;;;;;5093651;28;20007;-68
2022/06/20 15:31:16;;;;;;;;;;;;;;;;;;5092845;28;19970;-68
2022/06/20 15:33:42;;;;;;;;;;;;;;;;;;5093481;28;20038;-68
2022/06/20 15:36:09;;;;;;;;;;;;;;;;;;5093462;28;19920;-68
2022/06/20 15:38:35;;;;;;;;;;;;;;;;;;5092676;28;19963;-68
2022/06/20 15:41:01;;;;;;;;;;;;;;;;;;5093060;28;20003;-68
2022/06/20 15:43:27;;;;;;;;;;;;;;;;;;5092903;28;19924;-68
2022/06/20 15:45:53;;;;;;;;;;;;;;;;;;5092470;28;19974;-68
2022/06/20 15:48:19;;;;;;;;;;;;;;;;;;5092683;28;20324;-68
2022/06/20 15:50:45;;;;;;;;;;;;;;;;;;5092937;28;19924;-68
2022/06/20 15:53:11;;;;;;;;;;;;;;;;;;5092292;28;19924;-68
2022/06/20 15:55:37;;;;;;;;;;;;;;;;;;5091582;28;19974;-68
2022/06/20 15:58:04;;;;;;;;;;;;;;;;;;5092787;28;20370;-68
2022/06/20 16:00:29;;;;;;;;;;;;;;;;;;5092277;28;19973;-68
2022/06/20 16:02:55;;;;;;;;;;;;;;;;;;5092984;28;20564;-68
2022/06/20 16:05:21;;;;;;;;;;;;;;;;;;5092958;28;19920;-68
2022/06/20 16:07:47;;;;;;;;;;;;;;;;;;5092318;28;19946;-68
2022/06/20 16:10:13;;;;;;;;;;;;;;;;;;5091064;28;19925;-68
2022/06/20 16:12:39;;;;;;;;;;;;;;;;;;5092813;28;19955;-68
2022/06/20 16:15:06;;;;;;;;;;;;;;;;;;5092256;28;20396;-68
2022/06/20 16:17:32;;;;;;;;;;;;;;;;;;5091720;28;19924;-68
2022/06/20 16:19:58;;;;;;;;;;;;;;;;;;5092667;28;19924;-68
2022/06/20 16:22:26;;;;;;;;;;;;;;;;;;5091788;28;19920;-68
2022/06/20 16:24:52;;;;;;;;;;;;;;;;;;5092642;28;19931;-68
2022/06/20 16:27:18;;;;;;;;;;;;;;;;;;5074060;28;20559;-68
2022/06/20 16:29:44;;;;;;;;;;;;;;;;;;5071513;28;19925;-68
2022/06/20 16:32:10;;;;;;;;;;;;;;;;;;5072238;28;20461;-68
2022/06/20 16:34:36;;;;;;;;;;;;;;;;;;5072205;28;19920;-68
2022/06/20 16:37:02;;;;;;;;;;;;;;;;;;5071266;28;19920;-68
2022/06/20 16:39:29;;;;;;;;;;;;;;;;;;5071960;28;19924;-68
2022/06/20 16:41:55;;;;;;;;;;;;;;;;;;5071923;28;19920;-68
2022/06/20 16:44:21;;;;;;;;;;;;;;;;;;5071194;28;19929;-68